sensor_id;sensor_type;location;lat;lon;timestamp;temperature;humidity
60309;DHT22;50313;52.894;6.492;2022-07-10T00:00:41;12.60;99.90
60309;DHT22;50313;52.894;6.492;2022-07-10T00:03:06;12.60;99.90
60309;DHT22;50313;52.894;6.492;2022-07-10T00:05:32;12.50;99.90
60309;DHT22;50313;52.894;6.492;2022-07-10T00:07:59;12.50;99.90
60309;DHT22;50313;52.894;6.492;2022-07-10T00:10:25;12.50;99.90
60309;DHT22;50313;52.894;6.492;2022-07-10T00:12:51;12.50;99.90
60309;DHT22;50313;52.894;6.492;2022-07-10T00:15:18;12.50;99.90
60309;DHT22;50313;52.894;6.492;2022-07-10T00:17:45;12.50;99.90
60309;DHT22;50313;52.894;6.492;2022-07-10T00:20:12;12.60;99.90
60309;DHT22;50313;52.894;6.492;2022-07-10T00:22:39;12.60;99.90
60309;DHT22;50313;52.894;6.492;2022-07-10T00:25:05;12.60;99.90
60309;DHT22;50313;52.894;6.492;2022-07-10T00:27:31;12.60;99.90
60309;DHT22;50313;52.894;6.492;2022-07-10T00:29:57;12.60;99.90
60309;DHT22;50313;52.894;6.492;2022-07-10T00:32:23;12.50;99.90
60309;DHT22;50313;52.894;6.492;2022-07-10T00:34:49;12.50;99.90
60309;DHT22;50313;52.894;6.492;2022-07-10T00:37:15;12.50;99.90
60309;DHT22;50313;52.894;6.492;2022-07-10T00:39:42;12.50;99.90
60309;DHT22;50313;52.894;6.492;2022-07-10T00:42:09;12.60;99.90
60309;DHT22;50313;52.894;6.492;2022-07-10T00:44:36;12.60;99.90
60309;DHT22;50313;52.894;6.492;2022-07-10T00:47:06;12.70;99.90
60309;DHT22;50313;52.894;6.492;2022-07-10T00:49:36;12.70;99.90
60309;DHT22;50313;52.894;6.492;2022-07-10T00:52:07;12.70;99.90
60309;DHT22;50313;52.894;6.492;2022-07-10T00:54:34;12.70;99.90
60309;DHT22;50313;52.894;6.492;2022-07-10T00:57:03;12.70;99.90
60309;DHT22;50313;52.894;6.492;2022-07-10T00:59:29;12.70;99.90
60309;DHT22;50313;52.894;6.492;2022-07-10T01:01:55;12.60;99.90
60309;DHT22;50313;52.894;6.492;2022-07-10T01:04:21;12.50;99.90
60309;DHT22;50313;52.894;6.492;2022-07-10T01:06:47;12.40;99.90
60309;DHT22;50313;52.894;6.492;2022-07-10T01:09:13;12.40;99.90
60309;DHT22;50313;52.894;6.492;2022-07-10T01:11:39;12.30;99.90
60309;DHT22;50313;52.894;6.492;2022-07-10T01:14:05;12.30;99.90
60309;DHT22;50313;52.894;6.492;2022-07-10T01:16:31;12.30;99.90
60309;DHT22;50313;52.894;6.492;2022-07-10T01:18:58;12.30;99.90
60309;DHT22;50313;52.894;6.492;2022-07-10T01:21:32;12.30;99.90
60309;DHT22;50313;52.894;6.492;2022-07-10T01:23:59;12.30;99.90
60309;DHT22;50313;52.894;6.492;2022-07-10T01:26:25;12.30;99.90
60309;DHT22;50313;52.894;6.492;2022-07-10T01:28:52;12.30;99.90
60309;DHT22;50313;52.894;6.492;2022-07-10T01:31:25;12.30;99.90
60309;DHT22;50313;52.894;6.492;2022-07-10T01:33:52;12.20;99.90
60309;DHT22;50313;52.894;6.492;2022-07-10T01:36:20;12.20;99.90
60309;DHT22;50313;52.894;6.492;2022-07-10T01:38:46;12.20;99.90
60309;DHT22;50313;52.894;6.492;2022-07-10T01:41:11;12.20;99.90
60309;DHT22;50313;52.894;6.492;2022-07-10T01:43:38;12.20;99.90
60309;DHT22;50313;52.894;6.492;2022-07-10T01:46:08;12.20;99.90
60309;DHT22;50313;52.894;6.492;2022-07-10T01:48:38;12.20;99.90
60309;DHT22;50313;52.894;6.492;2022-07-10T01:51:04;12.10;99.90
60309;DHT22;50313;52.894;6.492;2022-07-10T01:53:30;12.20;99.90
60309;DHT22;50313;52.894;6.492;2022-07-10T01:55:56;12.10;99.90
60309;DHT22;50313;52.894;6.492;2022-07-10T01:58:22;12.00;99.90
60309;DHT22;50313;52.894;6.492;2022-07-10T02:00:48;12.00;99.90
60309;DHT22;50313;52.894;6.492;2022-07-10T02:03:14;12.00;99.90
60309;DHT22;50313;52.894;6.492;2022-07-10T02:05:58;11.90;99.90
60309;DHT22;50313;52.894;6.492;2022-07-10T02:08:24;11.90;99.90
60309;DHT22;50313;52.894;6.492;2022-07-10T02:10:50;11.80;99.90
60309;DHT22;50313;52.894;6.492;2022-07-10T02:13:16;11.80;99.90
60309;DHT22;50313;52.894;6.492;2022-07-10T02:15:49;11.80;99.90
60309;DHT22;50313;52.894;6.492;2022-07-10T02:18:15;11.70;99.90
60309;DHT22;50313;52.894;6.492;2022-07-10T02:20:41;11.70;99.90
60309;DHT22;50313;52.894;6.492;2022-07-10T02:23:07;11.70;99.90
60309;DHT22;50313;52.894;6.492;2022-07-10T02:25:33;11.60;99.90
60309;DHT22;50313;52.894;6.492;2022-07-10T02:27:59;11.60;99.90
60309;DHT22;50313;52.894;6.492;2022-07-10T02:30:25;11.60;99.90
60309;DHT22;50313;52.894;6.492;2022-07-10T02:32:51;11.60;99.90
60309;DHT22;50313;52.894;6.492;2022-07-10T02:35:17;11.50;99.90
60309;DHT22;50313;52.894;6.492;2022-07-10T02:37:42;11.50;99.90
60309;DHT22;50313;52.894;6.492;2022-07-10T02:40:08;11.50;99.90
60309;DHT22;50313;52.894;6.492;2022-07-10T02:42:34;11.50;99.90
60309;DHT22;50313;52.894;6.492;2022-07-10T02:45:00;11.50;99.90
60309;DHT22;50313;52.894;6.492;2022-07-10T02:47:26;11.50;99.90
60309;DHT22;50313;52.894;6.492;2022-07-10T02:49:51;11.50;99.90
60309;DHT22;50313;52.894;6.492;2022-07-10T02:52:17;11.50;99.90
60309;DHT22;50313;52.894;6.492;2022-07-10T02:54:43;11.60;99.90
60309;DHT22;50313;52.894;6.492;2022-07-10T02:57:08;11.50;99.90
60309;DHT22;50313;52.894;6.492;2022-07-10T02:59:34;11.60;99.90
60309;DHT22;50313;52.894;6.492;2022-07-10T03:02:00;11.60;99.90
60309;DHT22;50313;52.894;6.492;2022-07-10T03:04:26;11.60;99.90
60309;DHT22;50313;52.894;6.492;2022-07-10T03:06:52;11.60;99.90
60309;DHT22;50313;52.894;6.492;2022-07-10T03:09:18;11.50;99.90
60309;DHT22;50313;52.894;6.492;2022-07-10T03:11:44;11.50;99.90
60309;DHT22;50313;52.894;6.492;2022-07-10T03:14:09;11.50;99.90
60309;DHT22;50313;52.894;6.492;2022-07-10T03:16:35;11.50;99.90
60309;DHT22;50313;52.894;6.492;2022-07-10T03:19:01;11.60;99.90
60309;DHT22;50313;52.894;6.492;2022-07-10T03:21:26;11.60;99.90
60309;DHT22;50313;52.894;6.492;2022-07-10T03:23:52;11.70;99.90
60309;DHT22;50313;52.894;6.492;2022-07-10T03:26:18;11.80;99.90
60309;DHT22;50313;52.894;6.492;2022-07-10T03:28:43;11.80;99.90
60309;DHT22;50313;52.894;6.492;2022-07-10T03:31:09;11.90;99.90
60309;DHT22;50313;52.894;6.492;2022-07-10T03:33:35;11.90;99.90
60309;DHT22;50313;52.894;6.492;2022-07-10T03:36:00;12.00;99.90
60309;DHT22;50313;52.894;6.492;2022-07-10T03:38:29;12.10;99.90
60309;DHT22;50313;52.894;6.492;2022-07-10T03:40:54;12.10;99.90
60309;DHT22;50313;52.894;6.492;2022-07-10T03:43:20;12.20;99.90
60309;DHT22;50313;52.894;6.492;2022-07-10T03:45:46;12.30;99.90
60309;DHT22;50313;52.894;6.492;2022-07-10T03:48:11;12.40;99.90
60309;DHT22;50313;52.894;6.492;2022-07-10T03:50:37;12.50;99.90
60309;DHT22;50313;52.894;6.492;2022-07-10T03:53:03;12.40;99.90
60309;DHT22;50313;52.894;6.492;2022-07-10T03:55:29;12.50;99.90
60309;DHT22;50313;52.894;6.492;2022-07-10T03:57:54;12.50;99.90
60309;DHT22;50313;52.894;6.492;2022-07-10T04:00:23;12.50;99.90
60309;DHT22;50313;52.894;6.492;2022-07-10T04:02:57;12.60;99.90
60309;DHT22;50313;52.894;6.492;2022-07-10T04:05:24;12.60;99.90
60309;DHT22;50313;52.894;6.492;2022-07-10T04:07:50;12.60;99.90
60309;DHT22;50313;52.894;6.492;2022-07-10T04:10:16;12.50;99.90
60309;DHT22;50313;52.894;6.492;2022-07-10T04:12:42;12.50;99.90
60309;DHT22;50313;52.894;6.492;2022-07-10T04:15:08;12.50;99.90
60309;DHT22;50313;52.894;6.492;2022-07-10T04:17:34;12.50;99.90
60309;DHT22;50313;52.894;6.492;2022-07-10T04:20:00;12.50;99.90
60309;DHT22;50313;52.894;6.492;2022-07-10T04:22:26;12.40;99.90
60309;DHT22;50313;52.894;6.492;2022-07-10T04:24:54;12.40;99.90
60309;DHT22;50313;52.894;6.492;2022-07-10T04:27:19;12.50;99.90
60309;DHT22;50313;52.894;6.492;2022-07-10T04:29:45;12.50;99.90
60309;DHT22;50313;52.894;6.492;2022-07-10T04:32:11;12.50;99.90
60309;DHT22;50313;52.894;6.492;2022-07-10T04:34:37;12.60;99.90
60309;DHT22;50313;52.894;6.492;2022-07-10T04:37:03;12.60;99.90
60309;DHT22;50313;52.894;6.492;2022-07-10T04:39:28;12.70;99.90
60309;DHT22;50313;52.894;6.492;2022-07-10T04:41:54;12.80;99.90
60309;DHT22;50313;52.894;6.492;2022-07-10T04:44:20;12.90;99.90
60309;DHT22;50313;52.894;6.492;2022-07-10T04:46:46;12.90;99.90
60309;DHT22;50313;52.894;6.492;2022-07-10T04:49:11;13.10;99.90
60309;DHT22;50313;52.894;6.492;2022-07-10T04:51:38;13.10;99.90
60309;DHT22;50313;52.894;6.492;2022-07-10T04:54:03;13.20;99.90
60309;DHT22;50313;52.894;6.492;2022-07-10T04:56:29;13.30;99.90
60309;DHT22;50313;52.894;6.492;2022-07-10T04:58:55;13.40;99.90
60309;DHT22;50313;52.894;6.492;2022-07-10T05:01:20;13.40;99.90
60309;DHT22;50313;52.894;6.492;2022-07-10T05:03:46;13.50;99.90
60309;DHT22;50313;52.894;6.492;2022-07-10T05:06:12;13.50;99.90
60309;DHT22;50313;52.894;6.492;2022-07-10T05:08:38;13.50;99.90
60309;DHT22;50313;52.894;6.492;2022-07-10T05:11:04;13.60;99.90
60309;DHT22;50313;52.894;6.492;2022-07-10T05:13:29;13.60;99.90
60309;DHT22;50313;52.894;6.492;2022-07-10T05:15:56;13.60;99.90
60309;DHT22;50313;52.894;6.492;2022-07-10T05:18:21;13.70;99.90
60309;DHT22;50313;52.894;6.492;2022-07-10T05:20:47;13.70;99.90
60309;DHT22;50313;52.894;6.492;2022-07-10T05:23:15;13.80;99.90
60309;DHT22;50313;52.894;6.492;2022-07-10T05:25:41;13.80;99.90
60309;DHT22;50313;52.894;6.492;2022-07-10T05:28:08;13.90;99.90
60309;DHT22;50313;52.894;6.492;2022-07-10T05:30:33;13.90;99.90
60309;DHT22;50313;52.894;6.492;2022-07-10T05:33:00;14.00;99.90
60309;DHT22;50313;52.894;6.492;2022-07-10T05:35:26;14.00;99.90
60309;DHT22;50313;52.894;6.492;2022-07-10T05:37:52;14.10;99.90
60309;DHT22;50313;52.894;6.492;2022-07-10T05:40:18;14.10;99.90
60309;DHT22;50313;52.894;6.492;2022-07-10T05:42:44;14.00;99.90
60309;DHT22;50313;52.894;6.492;2022-07-10T05:45:11;14.10;99.90
60309;DHT22;50313;52.894;6.492;2022-07-10T05:47:36;14.20;99.90
60309;DHT22;50313;52.894;6.492;2022-07-10T05:50:03;14.20;99.90
60309;DHT22;50313;52.894;6.492;2022-07-10T05:52:29;14.20;99.90
60309;DHT22;50313;52.894;6.492;2022-07-10T05:54:56;14.30;99.90
60309;DHT22;50313;52.894;6.492;2022-07-10T05:57:22;14.40;99.90
60309;DHT22;50313;52.894;6.492;2022-07-10T05:59:48;14.50;99.90
60309;DHT22;50313;52.894;6.492;2022-07-10T06:02:13;14.50;99.90
60309;DHT22;50313;52.894;6.492;2022-07-10T06:04:39;14.60;99.90
60309;DHT22;50313;52.894;6.492;2022-07-10T06:07:05;14.70;99.90
60309;DHT22;50313;52.894;6.492;2022-07-10T06:09:30;14.70;99.90
60309;DHT22;50313;52.894;6.492;2022-07-10T06:11:56;14.70;99.90
60309;DHT22;50313;52.894;6.492;2022-07-10T06:14:22;14.80;99.90
60309;DHT22;50313;52.894;6.492;2022-07-10T06:16:48;14.80;99.90
60309;DHT22;50313;52.894;6.492;2022-07-10T06:19:13;14.90;99.90
60309;DHT22;50313;52.894;6.492;2022-07-10T06:21:39;14.90;99.90
60309;DHT22;50313;52.894;6.492;2022-07-10T06:24:05;14.90;99.90
60309;DHT22;50313;52.894;6.492;2022-07-10T06:26:30;15.00;99.90
60309;DHT22;50313;52.894;6.492;2022-07-10T06:28:56;15.10;99.90
60309;DHT22;50313;52.894;6.492;2022-07-10T06:31:22;15.00;99.90
60309;DHT22;50313;52.894;6.492;2022-07-10T06:33:48;15.00;99.90
60309;DHT22;50313;52.894;6.492;2022-07-10T06:36:13;14.90;99.90
60309;DHT22;50313;52.894;6.492;2022-07-10T06:38:39;14.90;99.90
60309;DHT22;50313;52.894;6.492;2022-07-10T06:41:06;14.80;99.90
60309;DHT22;50313;52.894;6.492;2022-07-10T06:43:32;14.80;99.90
60309;DHT22;50313;52.894;6.492;2022-07-10T06:45:58;14.70;99.90
60309;DHT22;50313;52.894;6.492;2022-07-10T06:48:24;14.70;99.90
60309;DHT22;50313;52.894;6.492;2022-07-10T06:50:51;14.70;99.90
60309;DHT22;50313;52.894;6.492;2022-07-10T06:53:17;14.70;99.90
60309;DHT22;50313;52.894;6.492;2022-07-10T06:55:43;14.70;99.90
60309;DHT22;50313;52.894;6.492;2022-07-10T06:58:09;14.70;99.90
60309;DHT22;50313;52.894;6.492;2022-07-10T07:00:35;14.70;99.90
60309;DHT22;50313;52.894;6.492;2022-07-10T07:03:01;14.70;99.90
60309;DHT22;50313;52.894;6.492;2022-07-10T07:05:26;14.70;99.90
60309;DHT22;50313;52.894;6.492;2022-07-10T07:07:52;14.70;99.90
60309;DHT22;50313;52.894;6.492;2022-07-10T07:10:18;14.80;99.90
60309;DHT22;50313;52.894;6.492;2022-07-10T07:12:43;14.80;99.90
60309;DHT22;50313;52.894;6.492;2022-07-10T07:15:09;14.70;99.90
60309;DHT22;50313;52.894;6.492;2022-07-10T07:17:41;14.70;99.90
60309;DHT22;50313;52.894;6.492;2022-07-10T07:20:32;14.70;99.90
60309;DHT22;50313;52.894;6.492;2022-07-10T07:23:16;14.50;99.90
60309;DHT22;50313;52.894;6.492;2022-07-10T07:25:42;14.50;99.90
60309;DHT22;50313;52.894;6.492;2022-07-10T07:28:12;14.40;99.90
60309;DHT22;50313;52.894;6.492;2022-07-10T07:30:41;14.40;99.90
60309;DHT22;50313;52.894;6.492;2022-07-10T07:33:06;14.40;99.90
60309;DHT22;50313;52.894;6.492;2022-07-10T07:35:32;14.60;99.90
60309;DHT22;50313;52.894;6.492;2022-07-10T07:37:58;14.60;99.90
60309;DHT22;50313;52.894;6.492;2022-07-10T07:40:24;14.80;99.90
60309;DHT22;50313;52.894;6.492;2022-07-10T07:42:51;15.00;99.90
60309;DHT22;50313;52.894;6.492;2022-07-10T07:45:19;15.20;99.90
60309;DHT22;50313;52.894;6.492;2022-07-10T07:50:15;15.40;99.90
60309;DHT22;50313;52.894;6.492;2022-07-10T07:52:41;15.60;99.90
60309;DHT22;50313;52.894;6.492;2022-07-10T07:55:08;15.70;99.90
60309;DHT22;50313;52.894;6.492;2022-07-10T07:57:34;15.80;99.90
60309;DHT22;50313;52.894;6.492;2022-07-10T07:59:59;16.00;99.90
60309;DHT22;50313;52.894;6.492;2022-07-10T08:02:25;15.90;99.90
60309;DHT22;50313;52.894;6.492;2022-07-10T08:04:51;15.90;99.90
60309;DHT22;50313;52.894;6.492;2022-07-10T08:07:16;15.90;99.90
60309;DHT22;50313;52.894;6.492;2022-07-10T08:09:42;15.80;99.90
60309;DHT22;50313;52.894;6.492;2022-07-10T08:12:10;15.80;99.90
60309;DHT22;50313;52.894;6.492;2022-07-10T08:14:36;15.70;99.90
60309;DHT22;50313;52.894;6.492;2022-07-10T08:17:01;15.70;99.90
60309;DHT22;50313;52.894;6.492;2022-07-10T08:19:27;15.60;99.90
60309;DHT22;50313;52.894;6.492;2022-07-10T08:21:53;15.50;99.90
60309;DHT22;50313;52.894;6.492;2022-07-10T08:24:18;15.30;99.90
60309;DHT22;50313;52.894;6.492;2022-07-10T08:26:44;15.20;99.90
60309;DHT22;50313;52.894;6.492;2022-07-10T08:29:10;15.00;99.90
60309;DHT22;50313;52.894;6.492;2022-07-10T08:31:36;15.00;99.90
60309;DHT22;50313;52.894;6.492;2022-07-10T08:34:01;14.90;99.90
60309;DHT22;50313;52.894;6.492;2022-07-10T08:36:27;14.80;99.90
60309;DHT22;50313;52.894;6.492;2022-07-10T08:38:53;14.70;99.90
60309;DHT22;50313;52.894;6.492;2022-07-10T08:41:27;14.70;99.90
60309;DHT22;50313;52.894;6.492;2022-07-10T08:43:53;14.60;99.90
60309;DHT22;50313;52.894;6.492;2022-07-10T08:46:19;14.50;99.90
60309;DHT22;50313;52.894;6.492;2022-07-10T08:48:49;14.50;99.90
60309;DHT22;50313;52.894;6.492;2022-07-10T08:51:28;14.50;99.90
60309;DHT22;50313;52.894;6.492;2022-07-10T08:53:56;14.50;99.90
60309;DHT22;50313;52.894;6.492;2022-07-10T08:56:22;14.60;99.90
60309;DHT22;50313;52.894;6.492;2022-07-10T08:58:50;14.60;99.90
60309;DHT22;50313;52.894;6.492;2022-07-10T09:01:17;14.80;99.90
60309;DHT22;50313;52.894;6.492;2022-07-10T09:03:51;14.80;99.90
60309;DHT22;50313;52.894;6.492;2022-07-10T09:06:18;14.90;99.90
60309;DHT22;50313;52.894;6.492;2022-07-10T09:09:04;15.00;99.90
60309;DHT22;50313;52.894;6.492;2022-07-10T09:11:31;15.20;99.90
60309;DHT22;50313;52.894;6.492;2022-07-10T09:14:01;15.30;99.90
60309;DHT22;50313;52.894;6.492;2022-07-10T09:16:36;15.50;99.90
60309;DHT22;50313;52.894;6.492;2022-07-10T09:19:18;15.60;99.90
60309;DHT22;50313;52.894;6.492;2022-07-10T09:21:52;15.70;99.90
60309;DHT22;50313;52.894;6.492;2022-07-10T09:24:19;15.70;99.90
60309;DHT22;50313;52.894;6.492;2022-07-10T09:27:00;15.80;99.90
60309;DHT22;50313;52.894;6.492;2022-07-10T09:29:27;15.70;99.90
60309;DHT22;50313;52.894;6.492;2022-07-10T09:31:57;15.80;99.90
60309;DHT22;50313;52.894;6.492;2022-07-10T09:34:43;15.80;99.90
60309;DHT22;50313;52.894;6.492;2022-07-10T09:37:24;15.90;99.90
60309;DHT22;50313;52.894;6.492;2022-07-10T09:39:59;16.00;99.90
60309;DHT22;50313;52.894;6.492;2022-07-10T09:42:33;15.90;99.90
60309;DHT22;50313;52.894;6.492;2022-07-10T09:47:57;16.10;99.90
60309;DHT22;50313;52.894;6.492;2022-07-10T09:50:32;16.30;99.90
60309;DHT22;50313;52.894;6.492;2022-07-10T09:53:00;16.30;99.90
60309;DHT22;50313;52.894;6.492;2022-07-10T09:55:28;16.50;99.90
60309;DHT22;50313;52.894;6.492;2022-07-10T09:57:58;16.50;99.90
60309;DHT22;50313;52.894;6.492;2022-07-10T10:00:27;16.40;99.90
60309;DHT22;50313;52.894;6.492;2022-07-10T10:02:59;16.20;99.90
60309;DHT22;50313;52.894;6.492;2022-07-10T10:05:43;15.90;99.90
60309;DHT22;50313;52.894;6.492;2022-07-10T10:11:02;16.00;99.90
60309;DHT22;50313;52.894;6.492;2022-07-10T10:13:28;16.10;99.90
60309;DHT22;50313;52.894;6.492;2022-07-10T10:15:56;16.30;99.90
60309;DHT22;50313;52.894;6.492;2022-07-10T10:18:23;16.20;99.90
60309;DHT22;50313;52.894;6.492;2022-07-10T10:20:51;16.40;99.90
60309;DHT22;50313;52.894;6.492;2022-07-10T10:23:19;16.20;99.90
60309;DHT22;50313;52.894;6.492;2022-07-10T10:25:52;16.30;99.90
60309;DHT22;50313;52.894;6.492;2022-07-10T10:28:20;16.40;99.90
60309;DHT22;50313;52.894;6.492;2022-07-10T10:30:51;16.20;99.90
60309;DHT22;50313;52.894;6.492;2022-07-10T10:33:42;16.30;99.90
60309;DHT22;50313;52.894;6.492;2022-07-10T10:36:09;16.50;99.90
60309;DHT22;50313;52.894;6.492;2022-07-10T10:41:25;16.70;99.90
60309;DHT22;50313;52.894;6.492;2022-07-10T10:49:21;17.30;99.90
60309;DHT22;50313;52.894;6.492;2022-07-10T10:54:31;17.30;99.90
60309;DHT22;50313;52.894;6.492;2022-07-10T10:57:16;17.60;99.90
60309;DHT22;50313;52.894;6.492;2022-07-10T10:59:52;17.70;99.90
60309;DHT22;50313;52.894;6.492;2022-07-10T11:13:16;17.40;99.90
60309;DHT22;50313;52.894;6.492;2022-07-10T11:15:49;17.10;99.90
60309;DHT22;50313;52.894;6.492;2022-07-10T11:18:18;17.10;99.90
60309;DHT22;50313;52.894;6.492;2022-07-10T11:20:50;17.20;99.90
60309;DHT22;50313;52.894;6.492;2022-07-10T11:26:04;17.80;99.90
60309;DHT22;50313;52.894;6.492;2022-07-10T11:28:51;18.20;99.90
60309;DHT22;50313;52.894;6.492;2022-07-10T11:31:18;18.30;99.90
60309;DHT22;50313;52.894;6.492;2022-07-10T11:33:46;18.20;99.90
60309;DHT22;50313;52.894;6.492;2022-07-10T11:36:31;18.00;99.90
60309;DHT22;50313;52.894;6.492;2022-07-10T11:39:05;17.60;99.90
60309;DHT22;50313;52.894;6.492;2022-07-10T11:41:32;17.30;99.90
60309;DHT22;50313;52.894;6.492;2022-07-10T11:44:03;17.00;99.90
60309;DHT22;50313;52.894;6.492;2022-07-10T11:46:31;16.90;99.90
60309;DHT22;50313;52.894;6.492;2022-07-10T11:48:57;17.10;99.90
60309;DHT22;50313;52.894;6.492;2022-07-10T11:51:27;17.10;99.90
60309;DHT22;50313;52.894;6.492;2022-07-10T11:54:02;17.20;99.90
60309;DHT22;50313;52.894;6.492;2022-07-10T11:56:30;17.10;99.90
60309;DHT22;50313;52.894;6.492;2022-07-10T11:59:02;17.20;99.90
60309;DHT22;50313;52.894;6.492;2022-07-10T12:01:30;16.90;99.90
60309;DHT22;50313;52.894;6.492;2022-07-10T12:04:05;16.70;99.90
60309;DHT22;50313;52.894;6.492;2022-07-10T12:06:33;16.50;99.90
60309;DHT22;50313;52.894;6.492;2022-07-10T12:09:07;16.30;99.90
60309;DHT22;50313;52.894;6.492;2022-07-10T12:11:34;16.30;99.90
60309;DHT22;50313;52.894;6.492;2022-07-10T12:14:14;16.20;99.90
60309;DHT22;50313;52.894;6.492;2022-07-10T12:16:41;16.20;99.90
60309;DHT22;50313;52.894;6.492;2022-07-10T12:19:17;16.30;99.90
60309;DHT22;50313;52.894;6.492;2022-07-10T12:21:45;16.40;99.90
60309;DHT22;50313;52.894;6.492;2022-07-10T12:24:12;16.50;99.90
60309;DHT22;50313;52.894;6.492;2022-07-10T12:26:40;16.40;99.90
60309;DHT22;50313;52.894;6.492;2022-07-10T12:29:11;16.50;99.90
60309;DHT22;50313;52.894;6.492;2022-07-10T12:31:44;16.50;99.90
60309;DHT22;50313;52.894;6.492;2022-07-10T12:34:11;16.60;99.90
60309;DHT22;50313;52.894;6.492;2022-07-10T12:39:10;16.70;99.90
60309;DHT22;50313;52.894;6.492;2022-07-10T12:42:01;16.80;99.90
60309;DHT22;50313;52.894;6.492;2022-07-10T12:44:45;16.90;99.90
60309;DHT22;50313;52.894;6.492;2022-07-10T12:47:16;17.10;99.90
60309;DHT22;50313;52.894;6.492;2022-07-10T12:49:56;17.10;99.90
60309;DHT22;50313;52.894;6.492;2022-07-10T12:55:18;17.20;99.90
60309;DHT22;50313;52.894;6.492;2022-07-10T12:57:57;17.30;99.90
60309;DHT22;50313;52.894;6.492;2022-07-10T13:00:33;17.40;99.90
60309;DHT22;50313;52.894;6.492;2022-07-10T13:03:09;17.80;99.90
60309;DHT22;50313;52.894;6.492;2022-07-10T13:05:39;18.20;99.90
60309;DHT22;50313;52.894;6.492;2022-07-10T13:10:43;18.40;99.90
60309;DHT22;50313;52.894;6.492;2022-07-10T13:13:09;18.20;99.90
60309;DHT22;50313;52.894;6.492;2022-07-10T13:15:36;17.90;99.90
60309;DHT22;50313;52.894;6.492;2022-07-10T13:18:33;17.80;99.90
60309;DHT22;50313;52.894;6.492;2022-07-10T13:20:59;17.70;99.90
60309;DHT22;50313;52.894;6.492;2022-07-10T13:23:28;17.70;99.90
60309;DHT22;50313;52.894;6.492;2022-07-10T13:25:55;17.70;99.90
60309;DHT22;50313;52.894;6.492;2022-07-10T13:28:21;17.70;99.90
60309;DHT22;50313;52.894;6.492;2022-07-10T13:30:47;17.80;99.90
60309;DHT22;50313;52.894;6.492;2022-07-10T13:33:13;17.90;99.90
60309;DHT22;50313;52.894;6.492;2022-07-10T13:35:39;18.00;99.90
60309;DHT22;50313;52.894;6.492;2022-07-10T13:38:06;18.00;99.90
60309;DHT22;50313;52.894;6.492;2022-07-10T13:40:33;17.90;99.90
60309;DHT22;50313;52.894;6.492;2022-07-10T13:43:00;18.00;99.90
60309;DHT22;50313;52.894;6.492;2022-07-10T13:45:26;18.00;99.90
60309;DHT22;50313;52.894;6.492;2022-07-10T13:47:58;18.00;99.90
60309;DHT22;50313;52.894;6.492;2022-07-10T13:50:25;18.10;99.90
60309;DHT22;50313;52.894;6.492;2022-07-10T13:52:51;18.10;99.90
60309;DHT22;50313;52.894;6.492;2022-07-10T13:55:17;17.90;99.90
60309;DHT22;50313;52.894;6.492;2022-07-10T13:57:43;18.10;99.90
60309;DHT22;50313;52.894;6.492;2022-07-10T14:00:10;18.10;99.90
60309;DHT22;50313;52.894;6.492;2022-07-10T14:02:37;18.40;99.90
60309;DHT22;50313;52.894;6.492;2022-07-10T14:05:03;18.50;99.90
60309;DHT22;50313;52.894;6.492;2022-07-10T14:07:28;18.50;99.90
60309;DHT22;50313;52.894;6.492;2022-07-10T14:09:54;18.60;99.90
60309;DHT22;50313;52.894;6.492;2022-07-10T14:12:20;18.60;99.90
60309;DHT22;50313;52.894;6.492;2022-07-10T14:14:46;18.80;99.90
60309;DHT22;50313;52.894;6.492;2022-07-10T14:17:12;19.00;99.90
60309;DHT22;50313;52.894;6.492;2022-07-10T14:19:38;19.10;99.90
60309;DHT22;50313;52.894;6.492;2022-07-10T14:22:04;19.10;99.90
60309;DHT22;50313;52.894;6.492;2022-07-10T14:24:29;19.20;99.90
60309;DHT22;50313;52.894;6.492;2022-07-10T14:26:56;19.40;99.90
60309;DHT22;50313;52.894;6.492;2022-07-10T14:29:22;19.30;99.90
60309;DHT22;50313;52.894;6.492;2022-07-10T14:31:48;19.10;99.90
60309;DHT22;50313;52.894;6.492;2022-07-10T14:34:18;19.00;99.90
60309;DHT22;50313;52.894;6.492;2022-07-10T14:36:44;18.90;99.90
60309;DHT22;50313;52.894;6.492;2022-07-10T14:39:10;18.70;99.90
60309;DHT22;50313;52.894;6.492;2022-07-10T14:41:40;18.70;99.90
60309;DHT22;50313;52.894;6.492;2022-07-10T14:44:06;18.80;99.90
60309;DHT22;50313;52.894;6.492;2022-07-10T14:46:32;18.90;99.90
60309;DHT22;50313;52.894;6.492;2022-07-10T14:48:58;18.90;99.90
60309;DHT22;50313;52.894;6.492;2022-07-10T14:51:24;18.90;99.90
60309;DHT22;50313;52.894;6.492;2022-07-10T14:53:49;18.90;99.90
60309;DHT22;50313;52.894;6.492;2022-07-10T14:56:15;18.90;99.90
60309;DHT22;50313;52.894;6.492;2022-07-10T14:58:45;18.90;99.90
60309;DHT22;50313;52.894;6.492;2022-07-10T15:01:12;19.10;99.90
60309;DHT22;50313;52.894;6.492;2022-07-10T15:03:37;19.00;99.90
60309;DHT22;50313;52.894;6.492;2022-07-10T15:06:04;19.00;99.90
60309;DHT22;50313;52.894;6.492;2022-07-10T15:08:30;18.90;99.90
60309;DHT22;50313;52.894;6.492;2022-07-10T15:10:56;18.90;99.90
60309;DHT22;50313;52.894;6.492;2022-07-10T15:13:24;18.80;99.90
60309;DHT22;50313;52.894;6.492;2022-07-10T15:15:50;18.70;99.90
60309;DHT22;50313;52.894;6.492;2022-07-10T15:18:17;18.70;99.90
60309;DHT22;50313;52.894;6.492;2022-07-10T15:20:43;18.60;99.90
60309;DHT22;50313;52.894;6.492;2022-07-10T15:23:10;18.60;99.90
60309;DHT22;50313;52.894;6.492;2022-07-10T15:25:35;18.60;99.90
60309;DHT22;50313;52.894;6.492;2022-07-10T15:28:05;18.60;99.90
60309;DHT22;50313;52.894;6.492;2022-07-10T15:30:31;18.70;99.90
60309;DHT22;50313;52.894;6.492;2022-07-10T15:32:57;18.70;99.90
60309;DHT22;50313;52.894;6.492;2022-07-10T15:35:22;18.80;99.90
60309;DHT22;50313;52.894;6.492;2022-07-10T15:37:49;18.80;99.90
60309;DHT22;50313;52.894;6.492;2022-07-10T15:40:15;18.90;99.90
60309;DHT22;50313;52.894;6.492;2022-07-10T15:42:41;18.90;99.90
60309;DHT22;50313;52.894;6.492;2022-07-10T15:45:08;18.90;99.90
60309;DHT22;50313;52.894;6.492;2022-07-10T15:47:33;18.90;99.90
60309;DHT22;50313;52.894;6.492;2022-07-10T15:49:59;18.90;99.90
60309;DHT22;50313;52.894;6.492;2022-07-10T15:52:25;18.80;99.90
60309;DHT22;50313;52.894;6.492;2022-07-10T15:54:51;18.80;99.90
60309;DHT22;50313;52.894;6.492;2022-07-10T15:57:17;18.80;99.90
60309;DHT22;50313;52.894;6.492;2022-07-10T15:59:42;18.70;99.90
60309;DHT22;50313;52.894;6.492;2022-07-10T16:02:08;18.70;99.90
60309;DHT22;50313;52.894;6.492;2022-07-10T16:04:34;18.70;99.90
60309;DHT22;50313;52.894;6.492;2022-07-10T16:07:00;18.70;99.90
60309;DHT22;50313;52.894;6.492;2022-07-10T16:09:28;18.70;99.90
60309;DHT22;50313;52.894;6.492;2022-07-10T16:11:56;18.80;99.90
60309;DHT22;50313;52.894;6.492;2022-07-10T16:14:27;18.70;99.90